Simon Green

Recruteur en chef - Leeds United
6 Déc 2028
Mercredi
Processus

Personnalité

Adaptabilité (18) Ambition (5) Controverse (2) Loyauté (14) Pression (4) Professionnalisme (11) Sportivité (3) Tempérament (13)

Profil

Style d'entraînement Démocratique
Diplôme National A
Détermination 14
Gestion des joueurs 5
Motivation 7
Discipline 8
Satisfaction professionnelle
100%
Fatigue
0%
Rôle Recruteur en chef
Salaire 69.4K p/s
Contrat 14.03.2029

Performance

Comportement Bon
Efficacité de l'entraînement
46%
Développement des joueurs
60%
Prévention des blessures
55%
Mise en place tactique
55%

Événements récents

A participé à une réunion de recrutement maintenant
A participé à une réunion de recrutement maintenant
A recommandé une cible de transfert maintenant
A participé à une réunion de recrutement 7j
A participé à une réunion de recrutement 7j
A recommandé une cible de transfert 7j
A recommandé une cible de transfert 7j
A recommandé une cible de transfert 7j

Suivi en cours

162
Joueur Club Statut Capacité Confiance Observé Dernière observation Dernier vote
Trey Nyoni Rotherham United Actif 139 / 145 40% 8 04.07.2028 -
Daniel Banjaqui Benfica Actif 127 / 132 40% 1 04.07.2028 -
Noah Markmann Esbjerg Actif 120 / 123 40% 1 04.07.2028 -
Giovanni Leoni Lincoln City Actif 143 / 144 40% 11 26.06.2028 -
Tobías Ramírez River Plate Actif 121 / 136 40% 2 26.06.2028 -
Celías Ingenthron Platense Actif 116 / 123 40% 1 26.06.2028 -
Christos Mouzakitis Hull City Actif 136 / 144 40% 5 19.06.2028 -
Honest Ahanor Atalanta Actif 139 / 143 40% 15 19.06.2028 -
Augusto Bando Ascoli Actif 113 / 117 40% 2 12.06.2028 -
Andrey Ivlev Nizhniy Novgorod Actif 120 / 121 40% 1 12.06.2028 -
André Miranda Porto Actif 112 / 122 40% 1 04.06.2028 -
Alphadjo Cissé Lecce Actif 133 / 134 40% 1 04.06.2028 -
Ronan Kpakio AC Milan Actif 123 / 127 40% 13 31.05.2028 -
Ayden Heaven Portsmouth Actif 146 / 155 40% 12 24.01.2028 -
Toni Fruk Talleres Actif 132 / 133 66% 1 01.01.2028 -
Caleb Yirenkyi Coventry City Actif 139 / 151 40% 11 31.12.2027 -
Tyler Fletcher Rotherham United Actif 111 / 120 40% 7 31.12.2027 -
Riquelme Thompson-Jones Accrington Stanley Actif 104 / 123 40% 2 31.12.2027 -
Olivier Mambwa Young Boys Actif 112 / 114 40% 2 30.12.2027 -
Victor Hernandez Santa Fe Actif 125 / 119 40% 12 29.12.2027 -
Josh Nichols Oldham Athletic Actif 116 / 121 40% 5 28.12.2027 -
Lucas Bergvall Tottenham Actif 155 / 156 40% 13 25.12.2027 -
Hugo Rojas Instituto Actif 97 / 104 40% 3 23.12.2027 -
Esquerdinha Notts County Actif 121 / 124 40% 4 19.12.2027 -
Matias Siltanen Malmo FF Actif 121 / 134 40% 8 13.12.2027 -
Josh Acheampong Everton Actif 138 / 146 40% 8 10.12.2027 -
Archie Gray Southampton Actif 159 / 152 40% 8 06.12.2027 -
Jan Bürger Northampton Town Actif 123 / 128 40% 4 01.12.2027 -
Juan Manuel Villalba Tigre Actif 124 / 129 40% 3 29.11.2027 -
Agustín Obregón River Plate Actif 114 / 119 40% 5 26.11.2027 -
Luka Vušković Tottenham Actif 146 / 160 40% 4 25.11.2027 -
Nicolas Sport Recife Actif 110 / 117 40% 1 20.11.2027 -
Adrian Skogmar Malmo FF Actif 107 / 125 40% 3 30.10.2027 -
Rhys Walters Port Vale Actif 102 / 118 40% 2 29.10.2027 -
Nazareno Roselli Defensa y Justicia Actif 120 / 114 40% 1 25.10.2027 -
Matthew Litherland Harrogate Town Actif 115 / 124 40% 1 19.10.2027 -
Eliás Montiel Borussia Dortmund Actif 139 / 145 40% 9 30.09.2027 -
Kosta Nedeljković Aston Villa Actif 139 / 140 40% 1 24.09.2027 -
Timoteo Chamorro Talleres Actif 106 / 119 40% 1 19.09.2027 -
Jacob Wright Norwich City Actif 117 / 129 40% 1 07.09.2027 -
José Cavadia Aguilas Doradas Actif 97 / 112 40% 3 30.08.2027 -
Andrea Cogoni Cosenza Actif 102 / 107 40% 1 11.08.2027 -
Sascha Britschgi AC Milan Actif 123 / 128 40% 6 10.08.2027 -
Tiago Freitas Benfica Actif 116 / 125 40% 4 07.08.2027 -
Riley Owen Stevenage Actif 103 / 116 40% 4 06.08.2027 -
Miguel Figueiredo Benfica Actif 113 / 122 40% 3 06.08.2027 -
Wessel Kuhn PSV Actif 107 / 118 40% 4 02.08.2027 -
Martim Cunha Porto Actif 104 / 111 40% 2 04.07.2027 -
Ezra Mayers West Ham United Actif 113 / 132 40% 2 26.06.2027 -
Joe Johnson Luton Town Actif 97 / 107 40% 1 24.06.2027 -
Vittorio Magni Cesena Actif 101 / 110 40% 1 24.06.2027 -
Gady Beyuku Blackburn Rovers Actif 117 / 124 40% 1 23.06.2027 -
Kiani Inge Groningen Actif 110 / 114 40% 2 21.06.2027 -
Jaygo van Ommeren Utrecht Actif 103 / 114 40% 1 17.06.2027 -
Thiago Almada LOSC Lille Actif 145 / 146 69% 1 01.06.2027 Approuver
Francisco Trincão Inter Actif 156 / 156 66% 1 01.06.2027 Approuver
Nathan Broadhead Wrexham Actif 118 / 123 76% 1 01.06.2027 Approuver
Samuele di Benedetto Twente Actif 114 / 122 40% 1 01.06.2027 -
Aune Heggebø West Bromwich Albion Actif 133 / 123 40% 1 31.05.2027 -
Leo Castledine Middlesbrough Actif 133 / 127 40% 5 30.05.2027 -
Rocco Vata Watford Actif 119 / 127 40% 7 30.05.2027 -
Filippo Distefano Empoli Actif 110 / 119 40% 3 28.05.2027 -
Emanuel Emegha Chelsea Actif 147 / 143 40% 9 24.05.2027 -
Giorgi Kvernadze Frosinone Actif 124 / 124 40% 7 24.05.2027 -
Mohamed-Ali Cho Hull City Actif 132 / 132 40% 3 23.05.2027 -
Malik Mothersille Stockport County Actif 109 / 116 40% 3 23.05.2027 -
Mathys Tel Tottenham Actif 139 / 144 40% 5 21.05.2027 -
Jay Stansfield Birmingham Actif 128 / 122 40% 5 21.05.2027 -
Stiven Shpendi Empoli Actif 117 / 118 40% 6 20.05.2027 -
Josh Coburn Millwall Actif 122 / 122 40% 2 20.05.2027 -
Tyreece Campbell Charlton Athletic Actif 117 / 118 40% 3 20.05.2027 -
Aidomo Emakhu Oxford United Actif 124 / 123 40% 6 19.05.2027 -
Pablo Felipe West Ham United Actif 139 / 133 40% 6 18.05.2027 -
Richard Koné Queens Park Rangers Actif 129 / 125 40% 7 17.05.2027 -
Ilyas Ansah Hull City Actif 125 / 139 40% 5 16.05.2027 -
Gonçalo Oliveira Benfica Actif 110 / 115 40% 3 13.05.2027 -
Sindre Walle Egeli Udinese Actif 134 / 137 40% 9 03.05.2027 -
Sam Bell Bristol City Actif 117 / 125 40% 2 03.05.2027 -
Mateus Mané Burnley Actif 139 / 137 40% 3 30.04.2027 -
Fábio Carvalho Brentford Actif 140 / 144 40% 7 29.04.2027 -
Bence Dárdai VfL Wolfsburg Actif 125 / 131 40% 1 26.04.2027 -
David Romero Parma Actif 130 / 130 40% 4 24.04.2027 -
David Ozoh Derby County Actif 123 / 125 40% 1 24.04.2027 -
Jeff Ekhator Juventus Actif 128 / 134 40% 2 20.04.2027 -
Berna CSKA 1948 Actif 111 / 119 40% 1 14.04.2027 -
Morgan Rogers Chelsea Actif 161 / 156 40% 7 11.04.2027 -
Joe Gelhardt Hull City Actif 132 / 137 40% 4 05.04.2027 -
Marezi Portsmouth Actif 118 / 119 40% 1 31.03.2027 -
Georginio Rutter Brighton Actif 153 / 144 40% 12 20.03.2027 -
Matt O'Riley Brighton Actif 152 / 145 40% 1 19.01.2027 -
Yeremy Pino Crystal Palace Actif 145 / 153 40% 1 19.01.2027 -
Iliman N'Diaye Everton Actif 160 / 161 40% 6 31.12.2026 Observer
Giacomo Raspadori Atalanta Actif 153 / 150 40% 1 31.12.2026 -
Mohammad Hosseini Malavan Actif 118 / 121 40% 1 28.12.2026 -
Erick Dolly Black Aces Actif 118 / 121 40% 4 27.12.2026 -
James Garner Everton Actif 147 / 153 40% 3 27.12.2026 -
Michael Kayode Brentford Actif 138 / 145 40% 1 27.12.2026 -
Rodrigo Muniz Fulham Actif 135 / 142 40% 3 24.12.2026 -
Amadou Onana Aston Villa Actif 159 / 160 40% 2 23.12.2026 -
Mats Wieffer Brighton Actif 152 / 153 40% 1 23.12.2026 -
Evidence Makgopa Orlando Pirates Actif 105 / 116 40% 2 21.12.2026 -
João Pedro Chelsea Actif 142 / 156 40% 4 21.12.2026 -
Zach Ryan Ismaily Actif 92 / 90 40% 3 20.12.2026 -
Yehor Yarmoliuk Brentford Actif 149 / 146 40% 2 19.12.2026 -
Juanlu Bournemouth Actif 145 / 150 40% 1 19.12.2026 -
Adam Wharton Crystal Palace Actif 142 / 154 40% 2 17.12.2026 -
Maxence Lacroix Chelsea Actif 154 / 143 40% 2 17.12.2026 -
Wilson Isidor Sunderland Actif 130 / 131 40% 4 15.12.2026 -
Wessam Abou Ali Columbus Crew Actif 130 / 128 40% 3 09.12.2026 -
Etiosa Ighodaro Kaizer Chiefs Actif 114 / 117 40% 2 09.12.2026 -
Talles Magno New York City Actif 127 / 130 40% 4 04.12.2026 -
Moisés Caicedo Chelsea Actif 162 / 165 40% 2 03.12.2026 -
Nico O'Reilly Manchester City Actif 148 / 158 40% 2 02.12.2026 -
Jarrad Branthwaite Everton Actif 153 / 149 40% 1 02.12.2026 -
Ousmane Diomande Nottingham Forest Actif 150 / 151 40% 3 01.12.2026 -
Elliot Anderson Manchester City Actif 152 / 148 40% 1 01.12.2026 -
Nicolas Jackson Aston Villa Actif 141 / 148 40% 3 29.11.2026 -
Kévin Denkey FC Cincinnati Actif 126 / 131 40% 1 22.11.2026 -
Yeangel Montero Naxxar Lions Actif 99 / 99 40% 1 22.11.2026 -
Yousef Salech Cardiff City Perdu 118 / 129 40% 5 21.11.2026 -
Bénie Traoré New York City Actif 124 / 125 40% 4 20.11.2026 -
Josh Sargent Toronto FC Actif 126 / 122 40% 3 20.11.2026 -
Tadeo Allende Inter Miami CF Actif 120 / 127 40% 3 19.11.2026 -
Cheikh Sabaly Vancouver Whitecaps Actif 121 / 127 40% 3 17.11.2026 -
Jesus Ferreira Seattle Sounders Actif 134 / 128 40% 3 15.11.2026 -
Lewis Hall Newcastle United Actif 142 / 148 40% 3 11.11.2026 -
Victor Olatunji Real Salt Lake Actif 117 / 117 40% 3 10.11.2026 -
Ian Maatsen Aston Villa Actif 152 / 146 40% 1 05.11.2026 -
Martín Ojeda Orlando City Actif 138 / 131 40% 7 31.10.2026 -
Jan Paul van Hecke Tottenham Actif 163 / 159 40% 1 31.10.2026 -
Sandro Tonali Tottenham Actif 172 / 174 40% 1 28.10.2026 -
Ryan Sessegnon Fulham Actif 145 / 138 40% 1 28.10.2026 -
Cody Gakpo Liverpool Actif 155 / 157 40% 1 26.10.2026 -
Leonardo Campana New England Revolution Actif 134 / 129 40% 1 24.10.2026 -
Kevin Schade Chelsea Actif 157 / 143 40% 1 23.10.2026 -
Kelvin Yeboah Minnesota United FC Actif 123 / 123 40% 1 21.10.2026 -
Germán Berterame Inter Miami CF Actif 139 / 137 40% 3 17.10.2026 -
Gabriel Martinelli Arsenal Actif 166 / 156 40% 2 16.10.2026 -
Ryan Gravenberch Liverpool Actif 157 / 156 40% 2 12.10.2026 -
Matthijs de Ligt Manchester United Actif 148 / 162 40% 1 12.10.2026 -
Nicolò Tresoldi Club Brugge Actif 138 / 132 40% 1 11.10.2026 -
Agustín Anello Philadelphia Union Actif 124 / 129 40% 2 09.10.2026 -
Matheus Cunha Manchester United Actif 163 / 152 40% 1 08.10.2026 -
Tyrese Campbell Sheffield United Actif 118 / 124 40% 1 06.10.2026 -
Tino Livramento Newcastle United Actif 149 / 162 40% 1 05.10.2026 -
Wesley Fofana Chelsea Actif 164 / 155 40% 1 05.10.2026 -
Alonso Martínez New York City Actif 112 / 123 40% 4 03.10.2026 -
Alexander Isak Liverpool Actif 170 / 167 40% 3 02.10.2026 -
Indiana Vassilev Philadelphia Union Actif 114 / 124 40% 1 30.09.2026 -
Kevin Kelsy Portland Timbers Actif 114 / 115 40% 2 27.09.2026 -
Dejan Joveljić Seattle Sounders Actif 130 / 129 40% 1 27.09.2026 -
Brandon Vázquez Austin FC Actif 118 / 123 40% 2 26.09.2026 -
Taty Castellanos West Ham United Actif 144 / 148 40% 1 24.09.2026 -
Alexander Aravena Portland Timbers Actif 117 / 127 40% 1 22.09.2026 -
Maclyn Biokpo Jenewari Rivers United Actif 88 / 92 40% 1 21.09.2026 -
Duncan McGuire Houston Dynamo Actif 117 / 128 40% 3 20.09.2026 -
André Wolverhampton Actif 138 / 142 40% 1 20.09.2026 -
Jeremie Frimpong Liverpool Actif 158 / 160 40% 1 20.09.2026 -
Aaron Hickey Brentford Actif 136 / 149 40% 1 19.09.2026 -
Alejandro Piedrahita Deportivo Pereira Actif 131 / 124 40% 1 15.09.2026 -
Pedro Porro Tottenham Actif 142 / 146 40% 1 15.09.2026 -
Cemran Dansin Orlando Pirates Actif 94 / 111 40% 1 02.08.2026 -